sensor_id;sensor_type;location;lat;lon;timestamp;pressure;altitude;pressure_sealevel;temperature;humidity
29909;BME280;36247;51.952;6.146;2022-09-29T00:02:18;99867.78;;;5.59;100.00
29909;BME280;36247;51.952;6.146;2022-09-29T00:04:44;99869.38;;;5.51;100.00
29909;BME280;36247;51.952;6.146;2022-09-29T00:07:09;99857.22;;;5.56;100.00
29909;BME280;36247;51.952;6.146;2022-09-29T00:09:35;99857.50;;;5.71;100.00
29909;BME280;36247;51.952;6.146;2022-09-29T00:12:00;99859.63;;;5.94;100.00
29909;BME280;36247;51.952;6.146;2022-09-29T00:14:26;99853.66;;;6.01;100.00
29909;BME280;36247;51.952;6.146;2022-09-29T00:16:51;99865.16;;;6.08;100.00
29909;BME280;36247;51.952;6.146;2022-09-29T00:19:17;99863.56;;;6.17;100.00
29909;BME280;36247;51.952;6.146;2022-09-29T00:21:44;99862.66;;;6.15;100.00
29909;BME280;36247;51.952;6.146;2022-09-29T00:24:09;99860.03;;;6.15;100.00
29909;BME280;36247;51.952;6.146;2022-09-29T00:26:35;99855.97;;;5.84;100.00
29909;BME280;36247;51.952;6.146;2022-09-29T00:29:00;99852.91;;;6.08;100.00
29909;BME280;36247;51.952;6.146;2022-09-29T00:31:28;99861.56;;;6.03;100.00
29909;BME280;36247;51.952;6.146;2022-09-29T00:33:55;99863.53;;;5.67;100.00
29909;BME280;36247;51.952;6.146;2022-09-29T00:36:22;99864.19;;;5.54;100.00
29909;BME280;36247;51.952;6.146;2022-09-29T00:38:49;99859.38;;;5.31;100.00
29909;BME280;36247;51.952;6.146;2022-09-29T00:41:31;99858.63;;;5.37;100.00
29909;BME280;36247;51.952;6.146;2022-09-29T00:43:59;99868.09;;;5.28;100.00
29909;BME280;36247;51.952;6.146;2022-09-29T00:46:54;99860.19;;;5.27;100.00
29909;BME280;36247;51.952;6.146;2022-09-29T00:52:26;99874.66;;;5.52;100.00
29909;BME280;36247;51.952;6.146;2022-09-29T00:54:59;99866.59;;;5.43;100.00
29909;BME280;36247;51.952;6.146;2022-09-29T00:57:39;99869.19;;;5.40;100.00
29909;BME280;36247;51.952;6.146;2022-09-29T01:00:07;99863.78;;;5.32;100.00
29909;BME280;36247;51.952;6.146;2022-09-29T01:02:40;99860.47;;;5.42;100.00
29909;BME280;36247;51.952;6.146;2022-09-29T01:05:12;99869.31;;;5.47;100.00
29909;BME280;36247;51.952;6.146;2022-09-29T01:07:38;99858.72;;;5.43;100.00
29909;BME280;36247;51.952;6.146;2022-09-29T01:10:05;99861.31;;;5.41;100.00
29909;BME280;36247;51.952;6.146;2022-09-29T01:12:32;99864.81;;;5.42;100.00
29909;BME280;36247;51.952;6.146;2022-09-29T01:14:57;99859.56;;;5.42;100.00
29909;BME280;36247;51.952;6.146;2022-09-29T01:17:24;99869.22;;;5.41;100.00
29909;BME280;36247;51.952;6.146;2022-09-29T01:22:52;99859.16;;;5.19;100.00
29909;BME280;36247;51.952;6.146;2022-09-29T01:33:45;99866.16;;;5.18;100.00
29909;BME280;36247;51.952;6.146;2022-09-29T01:41:49;99871.44;;;4.79;100.00
29909;BME280;36247;51.952;6.146;2022-09-29T01:44:42;99861.13;;;4.88;100.00
29909;BME280;36247;51.952;6.146;2022-09-29T01:47:13;99863.91;;;4.95;100.00
29909;BME280;36247;51.952;6.146;2022-09-29T01:49:47;99866.69;;;5.02;100.00
29909;BME280;36247;51.952;6.146;2022-09-29T01:52:26;99867.34;;;4.91;100.00
29909;BME280;36247;51.952;6.146;2022-09-29T01:55:15;99870.31;;;5.08;100.00
29909;BME280;36247;51.952;6.146;2022-09-29T02:00:15;99861.41;;;5.00;100.00
29909;BME280;36247;51.952;6.146;2022-09-29T02:03:06;99862.75;;;4.81;100.00
29909;BME280;36247;51.952;6.146;2022-09-29T02:05:36;99865.75;;;4.57;100.00
29909;BME280;36247;51.952;6.146;2022-09-29T02:08:11;99861.22;;;4.51;100.00
29909;BME280;36247;51.952;6.146;2022-09-29T02:13:22;99866.47;;;4.51;100.00
29909;BME280;36247;51.952;6.146;2022-09-29T02:15:51;99860.28;;;4.49;100.00
29909;BME280;36247;51.952;6.146;2022-09-29T02:18:26;99858.56;;;4.50;100.00
29909;BME280;36247;51.952;6.146;2022-09-29T02:20:54;99864.41;;;4.77;100.00
29909;BME280;36247;51.952;6.146;2022-09-29T02:23:20;99863.75;;;4.88;100.00
29909;BME280;36247;51.952;6.146;2022-09-29T02:25:47;99868.69;;;4.72;100.00
29909;BME280;36247;51.952;6.146;2022-09-29T02:28:14;99871.13;;;4.63;100.00
29909;BME280;36247;51.952;6.146;2022-09-29T02:30:40;99870.75;;;4.48;100.00
29909;BME280;36247;51.952;6.146;2022-09-29T02:33:17;99872.31;;;4.39;100.00
29909;BME280;36247;51.952;6.146;2022-09-29T02:35:50;99877.44;;;4.33;100.00
29909;BME280;36247;51.952;6.146;2022-09-29T02:38:29;99872.78;;;4.21;100.00
29909;BME280;36247;51.952;6.146;2022-09-29T02:41:22;99872.84;;;4.24;100.00
29909;BME280;36247;51.952;6.146;2022-09-29T02:44:08;99871.00;;;4.20;100.00
29909;BME280;36247;51.952;6.146;2022-09-29T02:49:22;99877.38;;;4.30;100.00
29909;BME280;36247;51.952;6.146;2022-09-29T02:55:12;99863.56;;;4.37;100.00
29909;BME280;36247;51.952;6.146;2022-09-29T02:57:53;99874.34;;;4.15;100.00
29909;BME280;36247;51.952;6.146;2022-09-29T03:00:20;99870.13;;;3.85;100.00
29909;BME280;36247;51.952;6.146;2022-09-29T03:02:46;99880.00;;;3.95;100.00
29909;BME280;36247;51.952;6.146;2022-09-29T03:05:17;99872.69;;;4.17;100.00
29909;BME280;36247;51.952;6.146;2022-09-29T03:07:44;99879.66;;;4.18;100.00
29909;BME280;36247;51.952;6.146;2022-09-29T03:10:11;99875.28;;;4.17;100.00
29909;BME280;36247;51.952;6.146;2022-09-29T03:12:40;99879.91;;;4.27;100.00
29909;BME280;36247;51.952;6.146;2022-09-29T03:15:06;99880.97;;;4.35;100.00
29909;BME280;36247;51.952;6.146;2022-09-29T03:17:33;99874.97;;;4.41;100.00
29909;BME280;36247;51.952;6.146;2022-09-29T03:19:58;99879.56;;;4.50;100.00
29909;BME280;36247;51.952;6.146;2022-09-29T03:22:24;99883.22;;;4.58;100.00
29909;BME280;36247;51.952;6.146;2022-09-29T03:24:50;99878.22;;;4.67;100.00
29909;BME280;36247;51.952;6.146;2022-09-29T03:27:15;99865.84;;;4.62;100.00
29909;BME280;36247;51.952;6.146;2022-09-29T03:29:41;99872.06;;;4.67;100.00
29909;BME280;36247;51.952;6.146;2022-09-29T03:32:07;99878.03;;;4.61;100.00
29909;BME280;36247;51.952;6.146;2022-09-29T03:34:33;99868.41;;;4.58;100.00
29909;BME280;36247;51.952;6.146;2022-09-29T03:36:59;99870.81;;;4.51;100.00
29909;BME280;36247;51.952;6.146;2022-09-29T03:39:24;99877.91;;;4.55;100.00
29909;BME280;36247;51.952;6.146;2022-09-29T03:41:50;99878.91;;;4.60;100.00
29909;BME280;36247;51.952;6.146;2022-09-29T03:44:16;99882.19;;;4.50;100.00
29909;BME280;36247;51.952;6.146;2022-09-29T03:46:42;99877.84;;;4.52;100.00
29909;BME280;36247;51.952;6.146;2022-09-29T03:49:11;99891.44;;;4.35;100.00
29909;BME280;36247;51.952;6.146;2022-09-29T03:51:40;99879.97;;;4.30;100.00
29909;BME280;36247;51.952;6.146;2022-09-29T03:54:06;99882.78;;;4.03;100.00
29909;BME280;36247;51.952;6.146;2022-09-29T03:56:32;99884.84;;;3.80;100.00
29909;BME280;36247;51.952;6.146;2022-09-29T03:58:57;99879.09;;;3.93;100.00
29909;BME280;36247;51.952;6.146;2022-09-29T04:01:23;99885.16;;;3.92;100.00
29909;BME280;36247;51.952;6.146;2022-09-29T04:03:48;99899.22;;;3.94;100.00
29909;BME280;36247;51.952;6.146;2022-09-29T04:06:14;99899.16;;;3.59;100.00
29909;BME280;36247;51.952;6.146;2022-09-29T04:08:40;99894.47;;;3.47;100.00
29909;BME280;36247;51.952;6.146;2022-09-29T04:11:08;99902.44;;;3.52;100.00
29909;BME280;36247;51.952;6.146;2022-09-29T04:13:33;99904.78;;;3.75;100.00
29909;BME280;36247;51.952;6.146;2022-09-29T04:16:01;99904.56;;;3.65;100.00
29909;BME280;36247;51.952;6.146;2022-09-29T04:18:27;99907.13;;;3.64;100.00
29909;BME280;36247;51.952;6.146;2022-09-29T04:20:53;99912.31;;;3.62;100.00
29909;BME280;36247;51.952;6.146;2022-09-29T04:23:19;99914.78;;;3.89;100.00
29909;BME280;36247;51.952;6.146;2022-09-29T04:25:45;99906.47;;;4.06;100.00
29909;BME280;36247;51.952;6.146;2022-09-29T04:28:11;99911.66;;;4.04;100.00
29909;BME280;36247;51.952;6.146;2022-09-29T04:30:37;99914.81;;;3.91;100.00
29909;BME280;36247;51.952;6.146;2022-09-29T04:33:02;99915.38;;;3.78;100.00
29909;BME280;36247;51.952;6.146;2022-09-29T04:35:28;99918.59;;;3.67;100.00
29909;BME280;36247;51.952;6.146;2022-09-29T04:37:55;99921.19;;;3.66;100.00
29909;BME280;36247;51.952;6.146;2022-09-29T04:40:22;99922.94;;;3.67;100.00
29909;BME280;36247;51.952;6.146;2022-09-29T04:42:47;99922.69;;;3.58;100.00
29909;BME280;36247;51.952;6.146;2022-09-29T04:45:13;99925.84;;;3.78;100.00
29909;BME280;36247;51.952;6.146;2022-09-29T04:47:38;99923.31;;;3.81;100.00
29909;BME280;36247;51.952;6.146;2022-09-29T04:50:04;99926.06;;;3.85;100.00
29909;BME280;36247;51.952;6.146;2022-09-29T04:52:30;99929.72;;;3.92;100.00
29909;BME280;36247;51.952;6.146;2022-09-29T04:54:55;99930.66;;;3.94;100.00
29909;BME280;36247;51.952;6.146;2022-09-29T04:57:21;99932.81;;;3.77;100.00
29909;BME280;36247;51.952;6.146;2022-09-29T04:59:46;99925.63;;;3.70;100.00
29909;BME280;36247;51.952;6.146;2022-09-29T05:02:13;99934.66;;;3.81;100.00
29909;BME280;36247;51.952;6.146;2022-09-29T05:04:38;99932.13;;;4.19;100.00
29909;BME280;36247;51.952;6.146;2022-09-29T05:07:04;99934.78;;;4.21;100.00
29909;BME280;36247;51.952;6.146;2022-09-29T05:09:29;99936.44;;;4.16;100.00
29909;BME280;36247;51.952;6.146;2022-09-29T05:11:55;99930.38;;;4.18;100.00
29909;BME280;36247;51.952;6.146;2022-09-29T05:14:20;99944.56;;;4.27;100.00
29909;BME280;36247;51.952;6.146;2022-09-29T05:16:46;99947.97;;;4.22;100.00
29909;BME280;36247;51.952;6.146;2022-09-29T05:19:11;99940.84;;;4.17;100.00
29909;BME280;36247;51.952;6.146;2022-09-29T05:21:37;99944.03;;;4.05;100.00
29909;BME280;36247;51.952;6.146;2022-09-29T05:24:02;99954.63;;;4.10;100.00
29909;BME280;36247;51.952;6.146;2022-09-29T05:26:28;99957.09;;;4.03;100.00
29909;BME280;36247;51.952;6.146;2022-09-29T05:28:54;99955.47;;;4.09;100.00
29909;BME280;36247;51.952;6.146;2022-09-29T05:31:20;99957.38;;;4.14;100.00
29909;BME280;36247;51.952;6.146;2022-09-29T05:33:46;99969.56;;;4.12;100.00
29909;BME280;36247;51.952;6.146;2022-09-29T05:36:11;99958.25;;;4.15;100.00
29909;BME280;36247;51.952;6.146;2022-09-29T05:38:37;99960.06;;;4.17;100.00
29909;BME280;36247;51.952;6.146;2022-09-29T05:41:04;99960.94;;;4.18;100.00
29909;BME280;36247;51.952;6.146;2022-09-29T05:43:30;99973.72;;;4.05;100.00
29909;BME280;36247;51.952;6.146;2022-09-29T05:46:00;99968.56;;;4.09;100.00
29909;BME280;36247;51.952;6.146;2022-09-29T05:48:26;99968.03;;;4.22;100.00
29909;BME280;36247;51.952;6.146;2022-09-29T05:50:55;99971.25;;;4.12;100.00
29909;BME280;36247;51.952;6.146;2022-09-29T05:53:21;99978.09;;;4.05;100.00
29909;BME280;36247;51.952;6.146;2022-09-29T05:55:46;99984.56;;;4.19;100.00
29909;BME280;36247;51.952;6.146;2022-09-29T05:58:12;99978.47;;;3.85;100.00
29909;BME280;36247;51.952;6.146;2022-09-29T06:00:38;99979.25;;;3.83;100.00
29909;BME280;36247;51.952;6.146;2022-09-29T06:03:03;99988.69;;;4.10;100.00
29909;BME280;36247;51.952;6.146;2022-09-29T06:05:29;99987.56;;;4.00;100.00
29909;BME280;36247;51.952;6.146;2022-09-29T06:07:54;99987.44;;;3.95;100.00
29909;BME280;36247;51.952;6.146;2022-09-29T06:10:20;99991.69;;;3.90;100.00
29909;BME280;36247;51.952;6.146;2022-09-29T06:12:46;99990.13;;;3.98;100.00
29909;BME280;36247;51.952;6.146;2022-09-29T06:15:11;99985.22;;;4.09;100.00
29909;BME280;36247;51.952;6.146;2022-09-29T06:17:37;99988.81;;;4.14;100.00
29909;BME280;36247;51.952;6.146;2022-09-29T06:20:04;99981.69;;;4.09;100.00
29909;BME280;36247;51.952;6.146;2022-09-29T06:22:30;99991.28;;;4.08;100.00
29909;BME280;36247;51.952;6.146;2022-09-29T06:24:56;99995.25;;;3.94;100.00
29909;BME280;36247;51.952;6.146;2022-09-29T06:27:21;99991.88;;;3.98;100.00
29909;BME280;36247;51.952;6.146;2022-09-29T06:29:47;99995.66;;;4.08;100.00
29909;BME280;36247;51.952;6.146;2022-09-29T06:32:12;100015.34;;;4.27;100.00
29909;BME280;36247;51.952;6.146;2022-09-29T06:34:38;100009.53;;;4.38;100.00
29909;BME280;36247;51.952;6.146;2022-09-29T06:37:24;100012.16;;;4.38;100.00
29909;BME280;36247;51.952;6.146;2022-09-29T06:40:05;100010.13;;;4.62;100.00
29909;BME280;36247;51.952;6.146;2022-09-29T06:42:33;100011.34;;;4.77;100.00
29909;BME280;36247;51.952;6.146;2022-09-29T06:44:59;100012.38;;;4.83;100.00
29909;BME280;36247;51.952;6.146;2022-09-29T06:47:25;100010.09;;;4.98;100.00
29909;BME280;36247;51.952;6.146;2022-09-29T06:49:51;100014.72;;;5.08;100.00
29909;BME280;36247;51.952;6.146;2022-09-29T06:52:16;100011.31;;;5.12;100.00
29909;BME280;36247;51.952;6.146;2022-09-29T06:54:42;100015.31;;;5.35;100.00
29909;BME280;36247;51.952;6.146;2022-09-29T06:57:08;100011.34;;;5.14;100.00
29909;BME280;36247;51.952;6.146;2022-09-29T06:59:34;100014.72;;;5.08;100.00
29909;BME280;36247;51.952;6.146;2022-09-29T07:02:00;100019.53;;;5.28;100.00
29909;BME280;36247;51.952;6.146;2022-09-29T07:04:25;100022.28;;;5.34;100.00
29909;BME280;36247;51.952;6.146;2022-09-29T07:06:51;100025.78;;;5.33;100.00
29909;BME280;36247;51.952;6.146;2022-09-29T07:09:17;100024.50;;;5.57;100.00
29909;BME280;36247;51.952;6.146;2022-09-29T07:11:45;100022.09;;;5.66;100.00
29909;BME280;36247;51.952;6.146;2022-09-29T07:14:18;100029.25;;;5.73;100.00
29909;BME280;36247;51.952;6.146;2022-09-29T07:16:44;100029.09;;;5.67;100.00
29909;BME280;36247;51.952;6.146;2022-09-29T07:19:15;100034.41;;;5.70;100.00
29909;BME280;36247;51.952;6.146;2022-09-29T07:21:42;100033.53;;;5.70;100.00
29909;BME280;36247;51.952;6.146;2022-09-29T07:24:08;100031.19;;;5.83;100.00
29909;BME280;36247;51.952;6.146;2022-09-29T07:26:34;100035.53;;;5.81;100.00
29909;BME280;36247;51.952;6.146;2022-09-29T07:28:59;100040.88;;;5.86;100.00
29909;BME280;36247;51.952;6.146;2022-09-29T07:31:25;100044.59;;;5.96;100.00
29909;BME280;36247;51.952;6.146;2022-09-29T07:33:50;100042.81;;;5.95;100.00
29909;BME280;36247;51.952;6.146;2022-09-29T07:36:18;100048.22;;;6.01;100.00
29909;BME280;36247;51.952;6.146;2022-09-29T07:38:48;100045.88;;;6.16;100.00
29909;BME280;36247;51.952;6.146;2022-09-29T07:41:15;100041.06;;;6.41;100.00
29909;BME280;36247;51.952;6.146;2022-09-29T07:43:41;100036.13;;;6.60;100.00
29909;BME280;36247;51.952;6.146;2022-09-29T07:46:07;100043.22;;;6.64;100.00
29909;BME280;36247;51.952;6.146;2022-09-29T07:48:33;100053.44;;;6.45;100.00
29909;BME280;36247;51.952;6.146;2022-09-29T07:51:01;100058.06;;;6.59;100.00
29909;BME280;36247;51.952;6.146;2022-09-29T07:53:27;100059.50;;;6.93;100.00
29909;BME280;36247;51.952;6.146;2022-09-29T07:55:53;100051.81;;;7.07;100.00
29909;BME280;36247;51.952;6.146;2022-09-29T07:58:19;100045.94;;;7.27;100.00
29909;BME280;36247;51.952;6.146;2022-09-29T08:00:44;100049.03;;;7.57;100.00
29909;BME280;36247;51.952;6.146;2022-09-29T08:03:10;100060.97;;;8.01;100.00
29909;BME280;36247;51.952;6.146;2022-09-29T08:05:35;100059.72;;;7.70;100.00
29909;BME280;36247;51.952;6.146;2022-09-29T08:08:02;100058.34;;;8.01;100.00
29909;BME280;36247;51.952;6.146;2022-09-29T08:10:29;100069.06;;;8.14;100.00
29909;BME280;36247;51.952;6.146;2022-09-29T08:12:55;100068.25;;;8.22;100.00
29909;BME280;36247;51.952;6.146;2022-09-29T08:15:21;100071.16;;;7.69;100.00
29909;BME280;36247;51.952;6.146;2022-09-29T08:17:47;100074.34;;;7.48;100.00
29909;BME280;36247;51.952;6.146;2022-09-29T08:20:13;100083.34;;;7.62;100.00
29909;BME280;36247;51.952;6.146;2022-09-29T08:22:38;100083.97;;;8.13;100.00
29909;BME280;36247;51.952;6.146;2022-09-29T08:25:04;100078.97;;;8.36;100.00
29909;BME280;36247;51.952;6.146;2022-09-29T08:27:29;100086.91;;;8.36;100.00
29909;BME280;36247;51.952;6.146;2022-09-29T08:29:55;100078.66;;;8.91;100.00
29909;BME280;36247;51.952;6.146;2022-09-29T08:32:22;100092.66;;;8.82;100.00
29909;BME280;36247;51.952;6.146;2022-09-29T08:34:50;100096.25;;;8.92;100.00
29909;BME280;36247;51.952;6.146;2022-09-29T08:37:16;100092.78;;;8.99;100.00
29909;BME280;36247;51.952;6.146;2022-09-29T08:39:42;100099.13;;;9.22;100.00
29909;BME280;36247;51.952;6.146;2022-09-29T08:42:17;100097.53;;;9.45;100.00
29909;BME280;36247;51.952;6.146;2022-09-29T08:45:01;100105.47;;;9.44;100.00
29909;BME280;36247;51.952;6.146;2022-09-29T08:47:38;100100.41;;;9.85;100.00
29909;BME280;36247;51.952;6.146;2022-09-29T08:50:10;100102.44;;;10.47;100.00
29909;BME280;36247;51.952;6.146;2022-09-29T08:52:43;100110.38;;;10.42;100.00
29909;BME280;36247;51.952;6.146;2022-09-29T08:57:45;100102.31;;;10.17;100.00
29909;BME280;36247;51.952;6.146;2022-09-29T09:00:16;100101.44;;;10.20;100.00
29909;BME280;36247;51.952;6.146;2022-09-29T09:06:29;100107.59;;;10.16;100.00
29909;BME280;36247;51.952;6.146;2022-09-29T09:11:20;100115.47;;;9.96;100.00
29909;BME280;36247;51.952;6.146;2022-09-29T09:14:18;100109.19;;;9.78;100.00
29909;BME280;36247;51.952;6.146;2022-09-29T09:16:54;100115.25;;;9.60;100.00
29909;BME280;36247;51.952;6.146;2022-09-29T09:22:19;100116.28;;;9.82;100.00
29909;BME280;36247;51.952;6.146;2022-09-29T09:24:50;100115.53;;;10.16;100.00
29909;BME280;36247;51.952;6.146;2022-09-29T09:27:26;100119.88;;;10.06;100.00
29909;BME280;36247;51.952;6.146;2022-09-29T09:30:02;100117.28;;;10.12;100.00
29909;BME280;36247;51.952;6.146;2022-09-29T09:32:30;100117.31;;;10.20;100.00
29909;BME280;36247;51.952;6.146;2022-09-29T09:35:03;100112.19;;;11.28;100.00
29909;BME280;36247;51.952;6.146;2022-09-29T09:37:35;100112.09;;;11.85;100.00
29909;BME280;36247;51.952;6.146;2022-09-29T09:42:52;100116.59;;;11.64;100.00
29909;BME280;36247;51.952;6.146;2022-09-29T09:45:28;100116.44;;;12.15;100.00
29909;BME280;36247;51.952;6.146;2022-09-29T09:50:27;100112.31;;;13.08;100.00
29909;BME280;36247;51.952;6.146;2022-09-29T09:52:59;100113.00;;;13.31;100.00
29909;BME280;36247;51.952;6.146;2022-09-29T09:55:27;100110.72;;;14.57;95.14
29909;BME280;36247;51.952;6.146;2022-09-29T09:58:12;100117.66;;;14.71;90.48
29909;BME280;36247;51.952;6.146;2022-09-29T10:00:49;100112.78;;;14.37;90.81
29909;BME280;36247;51.952;6.146;2022-09-29T10:03:16;100109.31;;;15.47;89.23
29909;BME280;36247;51.952;6.146;2022-09-29T10:05:43;100110.38;;;15.86;86.34
29909;BME280;36247;51.952;6.146;2022-09-29T10:08:29;100115.06;;;15.74;83.18
29909;BME280;36247;51.952;6.146;2022-09-29T10:10:56;100115.41;;;16.46;84.39
29909;BME280;36247;51.952;6.146;2022-09-29T10:13:24;100110.09;;;16.02;85.18
29909;BME280;36247;51.952;6.146;2022-09-29T10:15:58;100116.16;;;16.09;80.84
29909;BME280;36247;51.952;6.146;2022-09-29T10:18:27;100117.41;;;16.75;78.04
29909;BME280;36247;51.952;6.146;2022-09-29T10:20:54;100120.25;;;16.27;79.24
29909;BME280;36247;51.952;6.146;2022-09-29T10:26:01;100123.50;;;17.19;82.92
29909;BME280;36247;51.952;6.146;2022-09-29T10:29:02;100124.63;;;17.47;75.13
29909;BME280;36247;51.952;6.146;2022-09-29T10:31:29;100120.50;;;18.32;71.73
29909;BME280;36247;51.952;6.146;2022-09-29T10:34:14;100134.09;;;17.24;74.99
29909;BME280;36247;51.952;6.146;2022-09-29T10:36:57;100124.84;;;17.37;76.12
29909;BME280;36247;51.952;6.146;2022-09-29T10:39:41;100119.84;;;17.92;72.10
29909;BME280;36247;51.952;6.146;2022-09-29T10:42:30;100131.28;;;17.99;67.81
29909;BME280;36247;51.952;6.146;2022-09-29T10:45:19;100127.75;;;17.28;72.30
29909;BME280;36247;51.952;6.146;2022-09-29T10:52:52;100132.34;;;16.87;71.31
29909;BME280;36247;51.952;6.146;2022-09-29T10:55:24;100129.88;;;18.17;76.39
29909;BME280;36247;51.952;6.146;2022-09-29T10:57:51;100132.91;;;18.35;69.64
29909;BME280;36247;51.952;6.146;2022-09-29T11:00:37;100126.81;;;18.29;70.46
29909;BME280;36247;51.952;6.146;2022-09-29T11:03:16;100130.28;;;18.02;66.95
29909;BME280;36247;51.952;6.146;2022-09-29T11:08:16;100135.75;;;18.90;74.67
29909;BME280;36247;51.952;6.146;2022-09-29T11:10:45;100138.47;;;19.16;64.27
29909;BME280;36247;51.952;6.146;2022-09-29T11:15:41;100136.41;;;18.68;74.57
29909;BME280;36247;51.952;6.146;2022-09-29T11:18:19;100134.50;;;19.28;67.25
29909;BME280;36247;51.952;6.146;2022-09-29T11:20:50;100139.69;;;17.84;67.16
29909;BME280;36247;51.952;6.146;2022-09-29T11:24:11;100134.69;;;18.36;66.53
29909;BME280;36247;51.952;6.146;2022-09-29T11:26:27;100139.56;;;18.21;67.54
29909;BME280;36247;51.952;6.146;2022-09-29T11:29:05;100145.91;;;17.17;69.44
29909;BME280;36247;51.952;6.146;2022-09-29T11:34:58;100138.63;;;18.54;65.70
29909;BME280;36247;51.952;6.146;2022-09-29T11:40:49;100141.63;;;17.78;69.95
29909;BME280;36247;51.952;6.146;2022-09-29T11:46:21;100146.00;;;17.83;64.99
29909;BME280;36247;51.952;6.146;2022-09-29T11:54:58;100150.75;;;16.16;72.95
29909;BME280;36247;51.952;6.146;2022-09-29T12:02:50;100152.28;;;15.83;83.10
29909;BME280;36247;51.952;6.146;2022-09-29T12:05:27;100152.81;;;16.46;78.70
29909;BME280;36247;51.952;6.146;2022-09-29T12:08:21;100148.69;;;16.31;76.42
29909;BME280;36247;51.952;6.146;2022-09-29T12:10:57;100144.75;;;16.89;75.05
29909;BME280;36247;51.952;6.146;2022-09-29T12:13:50;100148.63;;;16.74;74.76
29909;BME280;36247;51.952;6.146;2022-09-29T12:16:20;100148.81;;;16.25;70.72
29909;BME280;36247;51.952;6.146;2022-09-29T12:18:57;100141.75;;;16.20;71.68
29909;BME280;36247;51.952;6.146;2022-09-29T12:21:39;100153.63;;;15.57;70.61
29909;BME280;36247;51.952;6.146;2022-09-29T12:24:10;100149.13;;;15.05;72.99
29909;BME280;36247;51.952;6.146;2022-09-29T12:26:39;100146.47;;;16.08;72.05
29909;BME280;36247;51.952;6.146;2022-09-29T12:31:57;100145.78;;;15.98;66.67
29909;BME280;36247;51.952;6.146;2022-09-29T12:34:49;100148.75;;;15.82;75.70
29909;BME280;36247;51.952;6.146;2022-09-29T12:37:29;100140.75;;;16.26;71.43
29909;BME280;36247;51.952;6.146;2022-09-29T12:40:09;100154.72;;;15.95;69.56
29909;BME280;36247;51.952;6.146;2022-09-29T12:45:27;100146.72;;;15.95;76.30
29909;BME280;36247;51.952;6.146;2022-09-29T12:50:39;100143.47;;;16.65;69.95
29909;BME280;36247;51.952;6.146;2022-09-29T12:55:55;100152.44;;;16.63;74.13
29909;BME280;36247;51.952;6.146;2022-09-29T12:58:44;100152.53;;;16.58;71.17
29909;BME280;36247;51.952;6.146;2022-09-29T13:01:25;100152.97;;;16.39;70.51
29909;BME280;36247;51.952;6.146;2022-09-29T13:12:14;100150.25;;;16.82;65.24
29909;BME280;36247;51.952;6.146;2022-09-29T13:24:52;100164.16;;;16.99;66.68
29909;BME280;36247;51.952;6.146;2022-09-29T13:27:34;100158.94;;;17.31;68.20
29909;BME280;36247;51.952;6.146;2022-09-29T13:30:16;100167.31;;;17.53;70.10
29909;BME280;36247;51.952;6.146;2022-09-29T13:32:47;100152.06;;;17.89;62.07
29909;BME280;36247;51.952;6.146;2022-09-29T13:35:19;100161.16;;;18.76;70.85
29909;BME280;36247;51.952;6.146;2022-09-29T13:37:49;100160.31;;;18.76;62.00
29909;BME280;36247;51.952;6.146;2022-09-29T13:40:23;100170.16;;;18.45;62.76
29909;BME280;36247;51.952;6.146;2022-09-29T13:42:51;100166.75;;;19.00;59.86
29909;BME280;36247;51.952;6.146;2022-09-29T13:47:48;100178.66;;;16.89;67.16
29909;BME280;36247;51.952;6.146;2022-09-29T13:50:46;100179.34;;;16.13;71.27
29909;BME280;36247;51.952;6.146;2022-09-29T13:55:55;100185.31;;;16.24;75.65
29909;BME280;36247;51.952;6.146;2022-09-29T13:58:57;100183.44;;;15.84;76.24
29909;BME280;36247;51.952;6.146;2022-09-29T14:01:34;100186.19;;;15.78;75.28
29909;BME280;36247;51.952;6.146;2022-09-29T14:04:31;100188.06;;;16.21;75.15
29909;BME280;36247;51.952;6.146;2022-09-29T14:07:01;100191.53;;;15.81;76.03
29909;BME280;36247;51.952;6.146;2022-09-29T14:09:30;100184.94;;;18.90;69.43
29909;BME280;36247;51.952;6.146;2022-09-29T14:12:00;100179.75;;;21.14;56.79
29909;BME280;36247;51.952;6.146;2022-09-29T14:14:31;100172.25;;;22.27;51.72
29909;BME280;36247;51.952;6.146;2022-09-29T14:27:38;100191.31;;;21.16;52.51
29909;BME280;36247;51.952;6.146;2022-09-29T14:33:01;100200.47;;;19.09;56.00
29909;BME280;36247;51.952;6.146;2022-09-29T14:35:38;100196.19;;;19.85;58.21
29909;BME280;36247;51.952;6.146;2022-09-29T14:38:26;100199.81;;;18.41;61.10
29909;BME280;36247;51.952;6.146;2022-09-29T14:43:48;100202.28;;;18.78;58.61
29909;BME280;36247;51.952;6.146;2022-09-29T14:46:34;100198.69;;;20.89;50.17
29909;BME280;36247;51.952;6.146;2022-09-29T15:03:43;100229.09;;;17.06;74.65
29909;BME280;36247;51.952;6.146;2022-09-29T15:06:15;100220.59;;;16.85;72.48
29909;BME280;36247;51.952;6.146;2022-09-29T15:08:43;100232.41;;;16.77;77.47
29909;BME280;36247;51.952;6.146;2022-09-29T15:11:23;100221.47;;;16.89;74.36
29909;BME280;36247;51.952;6.146;2022-09-29T15:13:50;100227.72;;;16.44;71.27
29909;BME280;36247;51.952;6.146;2022-09-29T15:19:17;100226.47;;;16.17;73.94
29909;BME280;36247;51.952;6.146;2022-09-29T15:22:43;100226.59;;;16.09;79.64
29909;BME280;36247;51.952;6.146;2022-09-29T15:27:15;100233.47;;;15.71;80.93
29909;BME280;36247;51.952;6.146;2022-09-29T15:29:52;100245.31;;;15.55;78.80
29909;BME280;36247;51.952;6.146;2022-09-29T15:32:36;100249.41;;;15.76;79.14
29909;BME280;36247;51.952;6.146;2022-09-29T15:35:06;100247.28;;;15.42;82.40
29909;BME280;36247;51.952;6.146;2022-09-29T15:40:34;100247.03;;;14.99;88.18
29909;BME280;36247;51.952;6.146;2022-09-29T15:43:18;100255.41;;;14.70;88.12
29909;BME280;36247;51.952;6.146;2022-09-29T15:46:01;100254.50;;;14.73;89.40
29909;BME280;36247;51.952;6.146;2022-09-29T15:48:28;100252.81;;;14.64;93.44
29909;BME280;36247;51.952;6.146;2022-09-29T15:50:55;100259.09;;;14.61;95.50